Time;durP1;ratioP1;P1;durP2;ratioP2;P2;SDS_P1;SDS_P2;PMS_P1;PMS_P2;Temp;Humidity;BMP_temperature;BMP_pressure;BME280_temperature;BME280_humidity;BME280_pressure;Samples;Min_cycle;Max_cycle;Signal;HPM_P1;HPM_P2
2022/12/02 00:02:20;;;;;;;35.53;27.13;;;;;;;0.45;100.00;100633.19;5092365;28;20057;-78
2022/12/02 00:04:50;;;;;;;35.55;27.08;;;;;;;0.46;100.00;100637.50;5092054;28;20016;-78
2022/12/02 00:07:19;;;;;;;37.53;27.85;;;;;;;0.50;100.00;100640.91;5091960;28;20447;-78
2022/12/02 00:09:45;;;;;;;38.30;28.05;;;;;;;0.54;100.00;100650.38;5091672;28;20023;-78
2022/12/02 00:12:23;;;;;;;35.83;27.33;;;;;;;0.50;100.00;100646.03;5091980;28;20028;-78
2022/12/02 00:14:54;;;;;;;39.90;28.23;;;;;;;0.45;100.00;100637.47;5091691;28;20016;-78
2022/12/02 00:17:20;;;;;;;41.28;31.25;;;;;;;0.47;100.00;100636.66;5092035;28;20119;-78
2022/12/02 00:19:45;;;;;;;37.75;28.45;;;;;;;0.48;100.00;100643.47;5091833;28;20099;-77
2022/12/02 00:22:11;;;;;;;37.22;28.70;;;;;;;0.57;100.00;100646.97;5092020;28;20569;-78
2022/12/02 00:24:36;;;;;;;42.88;31.05;;;;;;;0.55;100.00;100640.97;5092044;28;20355;-78
2022/12/02 00:27:01;;;;;;;50.40;36.13;;;;;;;0.60;100.00;100645.31;5091718;28;20359;-78
2022/12/02 00:29:26;;;;;;;44.65;34.03;;;;;;;0.54;100.00;100632.41;5091837;28;20455;-78
2022/12/02 00:31:52;;;;;;;48.60;34.42;;;;;;;0.67;100.00;100643.66;5091743;28;20044;-78
2022/12/02 00:34:17;;;;;;;47.80;35.05;;;;;;;0.65;100.00;100630.81;5091856;28;20152;-78
2022/12/02 00:36:42;;;;;;;45.42;32.00;;;;;;;0.63;100.00;100629.97;5091584;28;20020;-78
2022/12/02 00:39:08;;;;;;;43.00;31.98;;;;;;;0.61;100.00;100636.78;5091647;28;20106;-78
2022/12/02 00:41:33;;;;;;;40.97;28.88;;;;;;;0.57;100.00;100635.03;5091653;28;20024;-77
2022/12/02 00:46:42;;;;;;;37.25;26.33;;;;;;;0.52;100.00;100628.13;5091382;28;20570;-78
2022/12/02 00:49:17;;;;;;;56.75;39.15;;;;;;;0.55;100.00;100625.59;5091715;28;20087;-78
2022/12/02 00:51:43;;;;;;;42.38;28.58;;;;;;;0.54;100.00;100623.88;5091440;28;20109;-78
2022/12/02 00:54:10;;;;;;;37.60;27.70;;;;;;;0.49;100.00;100632.38;5091538;28;20056;-78
2022/12/02 00:56:36;;;;;;;46.60;31.33;;;;;;;0.48;100.00;100627.25;5091801;28;20028;-78
2022/12/02 00:59:03;;;;;;;42.53;30.90;;;;;;;0.49;100.00;100628.97;5091439;28;20363;-78
2022/12/02 01:01:28;;;;;;;41.72;27.98;;;;;;;0.45;100.00;100624.66;5094320;28;20096;-78
2022/12/02 01:03:54;;;;;;;44.47;31.42;;;;;;;0.41;100.00;100617.78;5095081;28;20095;-78
2022/12/02 01:06:19;;;;;;;44.92;31.33;;;;;;;0.37;100.00;100608.31;5095236;28;20047;-78
2022/12/02 01:08:45;;;;;;;45.55;31.50;;;;;;;0.37;100.00;100613.47;5094902;28;20027;-78
2022/12/02 01:11:11;;;;;;;42.47;31.00;;;;;;;0.39;100.00;100614.34;5076868;28;20035;-77
2022/12/02 01:13:36;;;;;;;40.33;28.08;;;;;;;0.39;100.00;100622.03;5095356;28;20023;-78
2022/12/02 01:16:02;;;;;;;43.75;28.45;;;;;;;0.35;100.00;100607.47;5095027;28;20375;-78
2022/12/02 01:18:28;;;;;;;38.75;26.98;;;;;;;0.33;100.00;100602.31;5095167;28;20177;-78
2022/12/02 01:20:53;;;;;;;43.15;29.58;;;;;;;0.32;100.00;100607.44;5094841;28;20044;-78
2022/12/02 01:23:19;;;;;;;37.17;25.00;;;;;;;0.38;100.00;100620.28;5095032;28;20020;-78
2022/12/02 01:25:44;;;;;;;37.40;25.15;;;;;;;0.28;100.00;100606.53;5094987;28;20043;-78
2022/12/02 01:28:10;;;;;;;41.40;27.23;;;;;;;0.23;100.00;100597.94;5094989;28;20024;-78
2022/12/02 01:30:35;;;;;;;36.50;25.38;;;;;;;0.33;100.00;100621.94;5094972;28;20020;-78
2022/12/02 01:33:00;;;;;;;43.55;26.90;;;;;;;0.26;100.00;100603.09;5069555;28;20116;-78
2022/12/02 01:35:26;;;;;;;40.13;27.13;;;;;;;0.28;100.00;100600.56;5074432;28;20024;-78
2022/12/02 01:37:51;;;;;;;39.92;27.17;;;;;;;0.35;100.00;100607.47;5074538;28;20060;-78
2022/12/02 01:40:18;;;;;;;36.72;26.27;;;;;;;0.35;100.00;100613.44;5074472;28;20466;-78
2022/12/02 01:42:44;;;;;;;35.92;24.27;;;;;;;0.26;100.00;100597.97;5074286;28;20095;-78
2022/12/02 01:45:10;;;;;;;36.70;24.77;;;;;;;0.24;100.00;100600.50;5074427;28;20031;-78
2022/12/02 01:47:36;;;;;;;44.33;30.42;;;;;;;0.31;100.00;100605.72;5074357;28;20055;-78
2022/12/02 01:50:03;;;;;;;40.83;27.08;;;;;;;0.31;100.00;100605.72;5074092;28;20090;-78
2022/12/02 01:52:29;;;;;;;39.90;27.67;;;;;;;0.29;100.00;100605.69;5074097;28;20117;-77
2022/12/02 01:54:54;;;;;;;37.83;26.60;;;;;;;0.34;100.00;100610.84;5073936;28;20028;-78
2022/12/02 01:57:25;;;;;;;34.45;25.08;;;;;;;0.29;100.00;100592.88;5074234;28;20471;-78
2022/12/02 01:59:50;;;;;;;42.22;29.25;;;;;;;0.28;100.00;100593.72;5073941;28;20029;-78
2022/12/02 02:02:25;;;;;;;39.35;25.40;;;;;;;0.38;100.00;100603.25;5090085;28;20036;-78
2022/12/02 02:04:53;;;;;;;42.47;28.33;;;;;;;0.35;100.00;100592.94;5093939;28;20048;-78
2022/12/02 02:07:18;;;;;;;40.03;26.10;;;;;;;0.31;100.00;100587.78;5093971;28;20027;-78
2022/12/02 02:09:43;;;;;;;40.88;29.30;;;;;;;0.34;100.00;100598.94;5094315;28;20020;-78
2022/12/02 02:12:09;;;;;;;38.42;25.35;;;;;;;0.34;100.00;100591.25;5092857;28;20024;-78
2022/12/02 02:14:34;;;;;;;41.25;28.92;;;;;;;0.26;100.00;100587.75;5093975;28;20363;-77
2022/12/02 02:17:00;;;;;;;44.38;30.02;;;;;;;0.26;100.00;100592.88;5093782;28;20153;-78
2022/12/02 02:19:25;;;;;;;37.30;25.33;;;;;;;0.23;100.00;100592.81;5094032;28;20020;-78
2022/12/02 02:21:52;;;;;;;38.63;27.02;;;;;;;0.30;100.00;100606.56;5093569;28;20020;-78
2022/12/02 02:24:17;;;;;;;38.00;26.75;;;;;;;0.22;100.00;100589.41;5094059;28;20124;-78
2022/12/02 02:26:43;;;;;;;35.70;25.85;;;;;;;0.32;100.00;100607.44;5093835;28;20612;-78
2022/12/02 02:29:08;;;;;;;40.58;26.50;;;;;;;0.32;100.00;100607.44;5093636;28;20016;-78
2022/12/02 02:31:34;;;;;;;40.15;27.95;;;;;;;0.22;100.00;100584.28;5075865;28;20030;-78
2022/12/02 02:33:59;;;;;;;35.63;25.38;;;;;;;0.33;100.00;100601.44;5093397;28;20020;-78
2022/12/02 02:36:25;;;;;;;40.53;29.35;;;;;;;0.38;100.00;100608.38;5093500;28;20024;-78
2022/12/02 02:38:50;;;;;;;38.17;27.00;;;;;;;0.35;100.00;100607.47;5093459;28;20023;-78
2022/12/02 02:41:16;;;;;;;38.30;26.58;;;;;;;0.33;100.00;100610.00;5093681;28;20413;-78
2022/12/02 02:43:42;;;;;;;37.88;26.27;;;;;;;0.29;100.00;100599.69;5093465;28;20057;-78
2022/12/02 02:46:09;;;;;;;40.38;26.75;;;;;;;0.30;100.00;100606.56;5093084;28;20044;-78
2022/12/02 02:48:35;;;;;;;39.35;26.23;;;;;;;0.38;100.00;100615.16;5093235;28;20095;-78
2022/12/02 02:51:01;;;;;;;40.60;28.98;;;;;;;0.33;100.00;100611.69;5093120;28;20032;-78
2022/12/02 02:53:26;;;;;;;38.45;26.13;;;;;;;0.29;100.00;100605.69;5093546;28;20016;-78
2022/12/02 02:55:52;;;;;;;42.03;27.92;;;;;;;0.24;100.00;100607.34;5093275;28;20024;-78
2022/12/02 02:58:21;;;;;;;37.58;27.08;;;;;;;0.23;100.00;100603.94;5093351;28;20447;-78
2022/12/02 03:00:57;;;;;;;41.92;28.65;;;;;;;0.22;100.00;100604.78;5093055;28;20049;-78
2022/12/02 03:03:26;;;;;;;40.05;27.98;;;;;;;0.18;100.00;100600.47;5093364;28;20357;-78
2022/12/02 03:05:54;;;;;;;39.35;25.90;;;;;;;0.21;100.00;100602.19;5092754;28;20106;-78
2022/12/02 03:08:22;;;;;;;40.03;26.52;;;;;;;0.18;100.00;100603.03;5093051;28;20488;-78
2022/12/02 03:10:48;;;;;;;45.85;30.38;;;;;;;0.26;100.00;100605.69;5093122;28;20077;-78
2022/12/02 03:13:14;;;;;;;45.25;30.10;;;;;;;0.27;100.00;100609.09;5093029;28;20153;-78
2022/12/02 03:15:40;;;;;;;38.03;26.00;;;;;;;0.18;100.00;100591.91;5092870;28;20043;-78
2022/12/02 03:18:05;;;;;;;37.03;25.42;;;;;;;0.18;100.00;100586.78;5092540;28;20099;-78
2022/12/02 03:20:31;;;;;;;41.30;28.10;;;;;;;0.20;100.00;100588.50;5074767;28;20402;-78
2022/12/02 03:22:56;;;;;;;38.75;26.20;;;;;;;0.23;100.00;100593.69;5092296;28;20039;-78
2022/12/02 03:25:22;;;;;;;38.45;26.85;;;;;;;0.16;100.00;100583.34;5092693;28;20020;-78
2022/12/02 03:27:47;;;;;;;36.97;25.77;;;;;;;0.18;100.00;100590.22;5092661;28;20022;-78
2022/12/02 03:30:13;;;;;;;40.88;27.83;;;;;;;0.05;100.00;100575.56;5092403;28;20111;-78
2022/12/02 03:32:38;;;;;;;36.90;26.90;;;;;;;-0.01;100.00;100560.09;5092517;28;20485;-78
2022/12/02 03:35:05;;;;;;;37.95;27.58;;;;;;;0.06;100.00;100573.84;5092438;28;20123;-78
2022/12/02 03:37:30;;;;;;;39.33;27.40;;;;;;;-0.02;100.00;100564.38;5092653;28;20077;-78
2022/12/02 03:39:56;;;;;;;36.20;23.55;;;;;;;0.01;100.00;100571.25;5092174;28;20020;-78
2022/12/02 03:42:21;;;;;;;34.92;23.63;;;;;;;-0.06;100.00;100561.75;5092495;28;20020;-78
2022/12/02 03:44:48;;;;;;;31.48;21.42;;;;;;;-0.10;100.00;100558.31;5092395;28;20476;-78
2022/12/02 03:47:13;;;;;;;36.22;25.00;;;;;;;-0.06;100.00;100562.63;5073788;28;20028;-78
2022/12/02 03:49:39;;;;;;;38.08;25.60;;;;;;;-0.02;100.00;100566.09;5092469;28;20020;-78
2022/12/02 03:52:05;;;;;;;36.92;25.05;;;;;;;-0.11;100.00;100558.31;5092168;28;20345;-78
2022/12/02 03:54:30;;;;;;;37.97;25.73;;;;;;;-0.11;100.00;100551.47;5092317;28;20463;-78
2022/12/02 03:56:56;;;;;;;32.65;23.00;;;;;;;-0.07;100.00;100558.34;5091879;28;20436;-78
2022/12/02 03:59:25;;;;;;;38.50;27.23;;;;;;;-0.09;100.00;100561.72;5092118;28;20016;-78
2022/12/02 04:01:50;;;;;;;36.03;25.25;;;;;;;-0.18;100.00;100536.88;5092136;28;20043;-78
2022/12/02 04:04:16;;;;;;;43.42;26.23;;;;;;;-0.12;100.00;100543.78;5092146;28;20076;-77
2022/12/02 04:06:41;;;;;;;37.90;26.02;;;;;;;-0.04;100.00;100549.84;5092436;28;20031;-78
2022/12/02 04:09:07;;;;;;;42.55;27.20;;;;;;;-0.07;100.00;100548.09;5092022;28;20459;-78
2022/12/02 04:11:32;;;;;;;38.42;26.35;;;;;;;-0.09;100.00;100533.56;5092042;28;20020;-78
2022/12/02 04:13:57;;;;;;;45.35;30.40;;;;;;;-0.01;100.00;100549.88;5091815;28;20065;-78
2022/12/02 04:16:23;;;;;;;51.50;32.08;;;;;;;-0.07;100.00;100537.00;5092146;28;20020;-78
2022/12/02 04:18:48;;;;;;;45.03;30.10;;;;;;;0.02;100.00;100555.03;5091882;28;20034;-78
2022/12/02 04:21:13;;;;;;;44.65;29.80;;;;;;;-0.07;100.00;100544.69;5092082;28;20078;-78
2022/12/02 04:23:39;;;;;;;38.72;25.85;;;;;;;-0.07;100.00;100550.66;5073746;28;20035;-78
2022/12/02 04:26:05;;;;;;;43.30;28.85;;;;;;;-0.19;100.00;100534.31;5091638;28;20059;-78
2022/12/02 04:28:30;;;;;;;50.03;27.98;;;;;;;-0.20;100.00;100543.69;5091732;28;20024;-78
2022/12/02 04:30:56;;;;;;;40.78;27.05;;;;;;;-0.20;100.00;100550.53;5091479;28;20109;-78
2022/12/02 04:33:21;;;;;;;46.03;28.05;;;;;;;-0.28;100.00;100542.75;5092073;28;20385;-78
2022/12/02 04:35:46;;;;;;;36.63;23.13;;;;;;;-0.30;100.00;100546.97;5093822;28;20510;-78
2022/12/02 04:38:12;;;;;;;36.63;22.20;;;;;;;-0.24;100.00;100561.56;5077524;28;20371;-78
2022/12/02 04:40:37;;;;;;;57.40;32.72;;;;;;;-0.35;100.00;100543.50;5095926;28;20026;-78
2022/12/02 04:43:02;;;;;;;58.78;31.77;;;;;;;-0.36;100.00;100544.34;5095534;28;20027;-78
2022/12/02 04:45:28;;;;;;;37.28;24.70;;;;;;;-0.31;100.00;100550.38;5095728;28;20035;-78
2022/12/02 04:47:53;;;;;;;85.65;37.20;;;;;;;-0.26;100.00;100552.16;5095751;28;20020;-78
2022/12/02 04:50:18;;;;;;;93.53;38.13;;;;;;;-0.32;100.00;100541.84;5095602;28;20062;-78
2022/12/02 04:52:44;;;;;;;72.88;38.33;;;;;;;-0.28;100.00;100547.88;5095689;28;20019;-78
2022/12/02 04:55:09;;;;;;;37.47;23.55;;;;;;;-0.29;100.00;100547.00;5095318;28;20077;-78
2022/12/02 04:57:35;;;;;;;50.03;29.50;;;;;;;-0.25;100.00;100540.22;5095517;28;20028;-78
2022/12/02 05:00:00;;;;;;;35.65;23.58;;;;;;;-0.27;100.00;100547.88;5095472;28;20444;-79
2022/12/02 05:02:26;;;;;;;41.55;26.00;;;;;;;-0.28;100.00;100547.88;5095746;28;20371;-79
2022/12/02 05:04:51;;;;;;;43.05;24.42;;;;;;;-0.22;100.00;100555.59;5095570;28;20020;-79
2022/12/02 05:07:16;;;;;;;43.50;27.83;;;;;;;-0.22;100.00;100558.16;5095448;28;20443;-79
2022/12/02 05:09:42;;;;;;;43.83;26.02;;;;;;;-0.30;100.00;100550.38;5095375;28;20047;-79
2022/12/02 05:12:07;;;;;;;39.15;23.40;;;;;;;-0.28;100.00;100551.28;5095343;28;20496;-79
2022/12/02 05:14:32;;;;;;;45.88;26.83;;;;;;;-0.37;100.00;100533.25;5095253;28;20465;-79
2022/12/02 05:16:58;;;;;;;49.40;28.10;;;;;;;-0.27;100.00;100554.69;5094958;28;20471;-79
2022/12/02 05:19:23;;;;;;;35.70;24.42;;;;;;;-0.32;100.00;100546.13;5095020;28;20020;-79
2022/12/02 05:21:48;;;;;;;36.30;24.10;;;;;;;-0.34;100.00;100541.00;5095278;28;20024;-79
2022/12/02 05:24:14;;;;;;;34.58;22.27;;;;;;;-0.31;100.00;100543.56;5094988;28;20020;-79
2022/12/02 05:26:39;;;;;;;42.85;25.80;;;;;;;-0.37;100.00;100542.66;5095086;28;20023;-79
2022/12/02 05:29:05;;;;;;;33.63;22.95;;;;;;;-0.37;100.00;100540.09;5094690;28;20059;-79
2022/12/02 05:31:31;;;;;;;38.70;25.73;;;;;;;-0.31;100.00;100560.63;5094869;28;20481;-79
2022/12/02 05:33:56;;;;;;;47.78;30.65;;;;;;;-0.32;100.00;100556.34;5095049;28;20020;-79
2022/12/02 05:36:22;;;;;;;34.35;23.75;;;;;;;-0.34;100.00;100547.78;5094670;28;20024;-79
2022/12/02 05:38:47;;;;;;;34.97;22.48;;;;;;;-0.33;100.00;100560.63;5076762;28;20032;-79
2022/12/02 05:41:12;;;;;;;34.78;24.05;;;;;;;-0.32;100.00;100552.09;5094587;28;20028;-79
2022/12/02 05:43:40;;;;;;;34.17;23.30;;;;;;;-0.36;100.00;100546.91;5094757;28;20020;-79
2022/12/02 05:46:20;;;;;;;250.88;165.57;;;;;;;-0.39;100.00;100546.88;5094020;28;20368;-79
2022/12/02 05:48:48;;;;;;;62.83;43.08;;;;;;;-0.33;100.00;100552.09;5094676;28;20016;-79
2022/12/02 05:51:17;;;;;;;42.17;30.15;;;;;;;-0.31;100.00;100547.81;5094276;28;20030;-79
2022/12/02 05:53:43;;;;;;;45.90;29.52;;;;;;;-0.32;100.00;100549.53;5094368;28;20387;-79
2022/12/02 05:56:12;;;;;;;36.13;22.88;;;;;;;-0.28;100.00;100553.84;5094299;28;20467;-79
2022/12/02 05:58:39;;;;;;;51.83;32.97;;;;;;;-0.25;100.00;100570.94;5094365;28;20028;-79
2022/12/02 06:01:18;;;;;;;34.65;23.08;;;;;;;-0.26;100.00;100571.78;5094100;28;20414;-79
2022/12/02 06:03:43;;;;;;;64.85;49.83;;;;;;;-0.35;100.00;100559.72;5094520;28;20034;-79
2022/12/02 06:06:09;;;;;;;35.55;23.88;;;;;;;-0.33;100.00;100570.00;5094215;28;20019;-79
2022/12/02 06:08:35;;;;;;;43.45;28.17;;;;;;;-0.42;100.00;100557.06;5094196;28;20034;-79
2022/12/02 06:11:10;;;;;;;57.20;35.50;;;;;;;-0.43;100.00;100560.47;5093958;28;20019;-79
2022/12/02 06:13:37;;;;;;;40.13;27.88;;;;;;;-0.42;100.00;100564.75;5094381;28;20371;-79
2022/12/02 06:16:06;;;;;;;34.67;24.15;;;;;;;-0.44;100.00;100566.44;5094381;28;20040;-79
2022/12/02 06:18:34;;;;;;;41.50;23.55;;;;;;;-0.49;100.00;100555.28;5094332;28;20362;-79
2022/12/02 06:21:02;;;;;;;32.40;22.67;;;;;;;-0.48;100.00;100568.09;5093910;28;20627;-79
2022/12/02 06:23:31;;;;;;;35.45;23.10;;;;;;;-0.43;100.00;100584.34;5093656;28;20026;-79
2022/12/02 06:25:57;;;;;;;36.63;24.38;;;;;;;-0.49;100.00;100586.84;5094210;28;20102;-79
2022/12/02 06:28:35;;;;;;;40.72;25.33;;;;;;;-0.47;100.00;100590.28;5093646;28;20066;-79
2022/12/02 06:31:10;;;;;;;31.00;21.10;;;;;;;-0.53;100.00;100569.75;5093823;28;20493;-79
2022/12/02 06:33:37;;;;;;;42.90;27.63;;;;;;;-0.54;100.00;100568.03;5093903;28;20216;-79
2022/12/02 06:36:08;;;;;;;39.60;26.35;;;;;;;-0.48;100.00;100577.47;5093495;28;20030;-79
2022/12/02 06:38:40;;;;;;;39.03;25.60;;;;;;;-0.44;100.00;100597.16;5075706;28;20027;-79
2022/12/02 06:41:13;;;;;;;40.20;25.67;;;;;;;-0.58;100.00;100594.41;5093182;28;20024;-79
2022/12/02 06:43:39;;;;;;;38.05;25.60;;;;;;;-0.74;100.00;100583.09;5093913;28;20081;-79
2022/12/02 06:46:14;;;;;;;38.50;26.00;;;;;;;-0.84;100.00;100597.47;5093350;28;20031;-79
2022/12/02 06:48:39;;;;;;;290.38;167.15;;;;;;;-0.81;100.00;100604.31;5093428;28;20023;-79
2022/12/02 06:51:14;;;;;;;207.38;144.45;;;;;;;-0.81;100.00;100594.91;5093455;28;20096;-79
2022/12/02 06:53:41;;;;;;;66.45;49.83;;;;;;;-0.73;100.00;100594.19;5093444;28;20020;-79
2022/12/02 06:56:18;;;;;;;59.58;43.13;;;;;;;-0.67;100.00;100607.09;5093048;28;20055;-79
2022/12/02 06:58:52;;;;;;;46.30;31.42;;;;;;;-0.69;100.00;100590.84;5092553;28;20020;-79
2022/12/02 07:01:42;;;;;;;48.95;32.00;;;;;;;-0.68;100.00;100592.53;5092858;28;20040;-78
2022/12/02 07:04:07;;;;;;;39.47;26.60;;;;;;;-0.62;100.00;100603.75;5093156;28;20020;-79
2022/12/02 07:06:41;;;;;;;76.72;53.20;;;;;;;-0.70;100.00;100591.69;5093125;28;20069;-79
2022/12/02 07:09:31;;;;;;;53.58;36.20;;;;;;;-0.66;100.00;100601.97;5092778;28;20020;-79
2022/12/02 07:11:58;;;;;;;67.33;48.30;;;;;;;-0.63;100.00;100604.59;5093311;28;20024;-79
2022/12/02 07:14:40;;;;;;;147.57;79.40;;;;;;;-0.62;100.00;100606.28;5092919;28;20080;-79
2022/12/02 07:17:15;;;;;;;106.40;56.17;;;;;;;-0.76;100.00;100585.66;5092695;28;20463;-79
2022/12/02 07:19:43;;;;;;;127.88;51.40;;;;;;;-0.64;100.00;100597.72;5092855;28;20078;-79
2022/12/02 07:22:24;;;;;;;64.50;32.25;;;;;;;-0.60;100.00;100603.75;5092875;28;20036;-79
2022/12/02 07:25:07;;;;;;;37.90;23.52;;;;;;;-0.70;100.00;100591.69;5093219;28;20024;-79
2022/12/02 07:27:36;;;;;;;56.90;33.28;;;;;;;-0.65;100.00;100593.44;5092914;28;20023;-79
2022/12/02 07:30:02;;;;;;;82.95;45.15;;;;;;;-0.78;100.00;100576.22;5092656;28;20463;-79
2022/12/02 07:32:27;;;;;;;53.92;31.35;;;;;;;-0.65;100.00;100598.56;5092468;28;20111;-79
2022/12/02 07:34:53;;;;;;;71.90;37.38;;;;;;;-0.69;100.00;100594.25;5092717;28;20425;-79
2022/12/02 07:37:19;;;;;;;61.63;35.13;;;;;;;-0.73;100.00;100594.19;5092301;28;20028;-79
2022/12/02 07:39:44;;;;;;;75.57;44.13;;;;;;;-0.72;100.00;100593.34;5092626;28;20031;-79
2022/12/02 07:42:09;;;;;;;65.65;39.00;;;;;;;-0.64;100.00;100604.53;5092277;28;20475;-79
2022/12/02 07:44:35;;;;;;;82.05;53.60;;;;;;;-0.67;100.00;100600.25;5092506;28;20406;-79
2022/12/02 07:47:01;;;;;;;53.92;32.33;;;;;;;-0.61;100.00;100615.69;5092383;28;20016;-79
2022/12/02 07:49:26;;;;;;;70.95;50.08;;;;;;;-0.67;100.00;100586.63;5092431;28;20470;-79
2022/12/02 07:51:52;;;;;;;65.63;37.63;;;;;;;-0.65;100.00;100598.56;5092601;28;20073;-79
2022/12/02 07:54:17;;;;;;;63.13;35.88;;;;;;;-0.72;100.00;100588.22;5092280;28;20367;-79
2022/12/02 07:56:43;;;;;;;202.23;85.13;;;;;;;-0.71;100.00;100600.19;5092362;28;20355;-79
2022/12/02 07:59:09;;;;;;;77.38;37.78;;;;;;;-0.61;100.00;100609.72;5092519;28;20020;-79
2022/12/02 08:01:34;;;;;;;49.28;30.67;;;;;;;-0.67;100.00;100594.28;5073895;28;20043;-79
2022/12/02 08:04:00;;;;;;;74.68;40.88;;;;;;;-0.69;100.00;100591.69;5092336;28;20371;-79
2022/12/02 08:06:25;;;;;;;82.95;39.78;;;;;;;-0.70;100.00;100589.13;5092080;28;20103;-79
2022/12/02 08:08:50;;;;;;;76.32;40.60;;;;;;;-0.66;100.00;100596.84;5092209;28;20016;-79
2022/12/02 08:11:16;;;;;;;45.03;26.75;;;;;;;-0.63;100.00;100598.56;5091980;28;20164;-79
2022/12/02 08:13:41;;;;;;;62.58;32.47;;;;;;;-0.62;100.00;100598.63;5092184;28;20073;-79
2022/12/02 08:16:07;;;;;;;40.90;25.95;;;;;;;-0.59;100.00;100603.78;5090617;28;20036;-79
2022/12/02 08:18:33;;;;;;;54.08;29.55;;;;;;;-0.68;100.00;100584.88;5091160;28;20084;-79
2022/12/02 08:20:58;;;;;;;57.72;32.42;;;;;;;-0.61;100.00;100600.34;5091904;28;20106;-79
2022/12/02 08:23:24;;;;;;;50.22;28.52;;;;;;;-0.69;100.00;100584.00;5091901;28;20091;-79
2022/12/02 08:25:49;;;;;;;58.72;34.13;;;;;;;-0.69;100.00;100588.28;5091143;28;20058;-79
2022/12/02 08:28:14;;;;;;;64.40;37.38;;;;;;;-0.64;100.00;100600.28;5090317;28;20097;-78
2022/12/02 08:30:40;;;;;;;66.07;35.85;;;;;;;-0.76;100.00;100585.66;5090690;28;20362;-79
2022/12/02 08:33:05;;;;;;;88.80;40.00;;;;;;;-0.76;100.00;100601.00;5091040;28;20012;-79
2022/12/02 08:35:31;;;;;;;116.00;52.30;;;;;;;-0.74;100.00;100610.38;5091114;28;20518;-79
2022/12/02 08:37:56;;;;;;;75.75;39.13;;;;;;;-0.83;100.00;100600.88;5090844;28;20519;-79
2022/12/02 08:40:21;;;;;;;76.03;39.72;;;;;;;-0.83;100.00;100598.31;5090455;28;20031;-79
2022/12/02 08:42:47;;;;;;;43.80;26.25;;;;;;;-0.83;100.00;100594.06;5090521;28;20020;-79
2022/12/02 08:45:12;;;;;;;46.95;27.63;;;;;;;-0.84;100.00;100588.94;5071686;28;20100;-79
2022/12/02 08:47:37;;;;;;;62.35;35.90;;;;;;;-0.83;100.00;100596.63;5090220;28;20069;-79
2022/12/02 08:50:04;;;;;;;43.80;28.40;;;;;;;-0.80;100.00;100604.34;5090498;28;20468;-79
2022/12/02 08:52:29;;;;;;;57.53;35.47;;;;;;;-0.79;100.00;100594.97;5090028;28;20024;-79
2022/12/02 08:54:57;;;;;;;44.65;29.83;;;;;;;-0.89;100.00;100580.31;5090365;28;20027;-79
2022/12/02 08:57:22;;;;;;;60.05;32.67;;;;;;;-0.88;100.00;100588.03;5090093;28;20024;-79
2022/12/02 08:59:48;;;;;;;55.67;35.40;;;;;;;-0.85;100.00;100598.28;5091465;28;20028;-79
2022/12/02 09:02:13;;;;;;;62.33;35.65;;;;;;;-0.83;100.00;100603.44;5073375;28;20123;-79
2022/12/02 09:04:38;;;;;;;42.17;26.35;;;;;;;-0.80;100.00;100600.91;5091879;28;20056;-79
2022/12/02 09:07:04;;;;;;;48.55;28.80;;;;;;;-0.83;100.00;100598.31;5091986;28;20332;-79
2022/12/02 09:09:30;;;;;;;62.15;37.20;;;;;;;-0.82;100.00;100600.03;5091220;28;20081;-79
2022/12/02 09:11:55;;;;;;;46.38;27.90;;;;;;;-0.77;100.00;100604.38;5091582;28;20027;-80
2022/12/02 09:14:21;;;;;;;52.58;32.13;;;;;;;-0.75;100.00;100601.84;5073052;28;20012;-79
2022/12/02 09:16:47;;;;;;;53.20;33.15;;;;;;;-0.81;100.00;100581.28;5091699;28;20020;-79
2022/12/02 09:19:13;;;;;;;64.53;40.42;;;;;;;-0.85;100.00;100574.41;5073243;28;20022;-79
2022/12/02 09:21:38;;;;;;;47.67;29.27;;;;;;;-0.83;100.00;100586.38;5093192;28;20031;-79
2022/12/02 09:24:04;;;;;;;55.78;34.97;;;;;;;-0.79;100.00;100594.97;5076814;28;20021;-79
2022/12/02 09:26:29;;;;;;;50.10;30.27;;;;;;;-0.73;100.00;100604.41;5094860;28;20023;-79
2022/12/02 09:28:55;;;;;;;52.80;34.22;;;;;;;-0.74;100.00;100598.44;5076691;28;20028;-79
2022/12/02 09:31:20;;;;;;;58.70;40.78;;;;;;;-0.71;100.00;100607.88;5094741;28;20058;-79
2022/12/02 09:33:45;;;;;;;42.55;27.88;;;;;;;-0.80;100.00;100589.00;5095127;28;20024;-79
2022/12/02 09:36:11;;;;;;;46.70;31.58;;;;;;;-0.75;100.00;100599.28;5094810;28;20027;-79
2022/12/02 09:38:36;;;;;;;41.03;28.40;;;;;;;-0.76;100.00;100593.31;5095028;28;20063;-79
2022/12/02 09:41:02;;;;;;;60.28;36.55;;;;;;;-0.76;100.00;100590.75;5094777;28;20028;-79
2022/12/02 09:43:28;;;;;;;49.65;30.95;;;;;;;-0.72;100.00;100598.44;5094515;28;20038;-79
2022/12/02 09:45:55;;;;;;;53.08;31.35;;;;;;;-0.73;100.00;100597.59;5094969;28;20027;-79
2022/12/02 09:48:21;;;;;;;46.05;30.27;;;;;;;-0.74;100.00;100598.44;5094579;28;20470;-80
2022/12/02 09:50:46;;;;;;;56.13;34.28;;;;;;;-0.78;100.00;100596.69;5094715;28;20024;-80
2022/12/02 09:53:13;;;;;;;45.17;28.40;;;;;;;-0.79;100.00;100587.28;5094495;28;20343;-79
2022/12/02 09:55:39;;;;;;;48.08;29.60;;;;;;;-0.77;100.00;100591.56;5076356;28;20375;-80
2022/12/02 09:58:22;;;;;;;64.85;35.00;;;;;;;-0.79;100.00;100577.91;5094445;28;20028;-80
2022/12/02 10:00:51;;;;;;;82.80;36.60;;;;;;;-0.82;100.00;100577.00;5094625;28;20044;-79
2022/12/02 10:03:19;;;;;;;49.95;27.73;;;;;;;-0.82;100.00;100574.44;5094404;28;20061;-79
2022/12/02 10:05:45;;;;;;;44.22;25.35;;;;;;;-0.71;100.00;100589.97;5076199;28;20456;-80
2022/12/02 10:08:16;;;;;;;60.85;31.05;;;;;;;-0.77;100.00;100586.47;5094218;28;20027;-79
2022/12/02 10:10:43;;;;;;;40.67;26.42;;;;;;;-0.78;100.00;100582.19;5094229;28;20459;-79
2022/12/02 10:13:20;;;;;;;58.53;32.95;;;;;;;-0.82;100.00;100571.91;5094483;28;20027;-79
2022/12/02 10:15:46;;;;;;;146.60;96.20;;;;;;;-0.74;100.00;100577.97;5094335;28;20153;-80
2022/12/02 10:18:27;;;;;;;77.40;41.65;;;;;;;-0.80;100.00;100568.53;5094256;28;20480;-79
2022/12/02 10:20:53;;;;;;;;;;;;;;;-0.70;100.00;100582.31;5094510;28;20023;-79
2022/12/02 10:23:21;;;;;;;81.25;43.00;;;;;;;-0.74;100.00;100567.75;5093681;28;19904;-79
2022/12/02 10:25:47;;;;;;;68.57;43.03;;;;;;;-0.67;100.00;100573.81;5094054;28;20024;-80
2022/12/02 10:28:28;;;;;;;91.30;49.28;;;;;;;-0.66;100.00;100578.94;5093680;28;20451;-80
2022/12/02 10:31:11;;;;;;;119.50;58.35;;;;;;;-0.73;100.00;100558.38;5094024;28;20024;-80
2022/12/02 10:33:56;;;;;;;68.03;41.17;;;;;;;-0.62;100.00;100577.28;5092473;28;20035;-79
2022/12/02 10:36:35;;;;;;;67.45;35.72;;;;;;;-0.62;100.00;100579.84;5093898;28;20041;-79
2022/12/02 10:39:29;;;;;;;58.00;36.70;;;;;;;-0.60;100.00;100571.34;5093748;28;20043;-79
2022/12/02 10:42:04;;;;;;;76.25;43.50;;;;;;;-0.62;100.00;100579.84;5093574;28;20016;-80
2022/12/02 10:44:31;;;;;;;95.95;54.83;;;;;;;-0.67;100.00;100574.69;5093597;28;20024;-79
2022/12/02 10:47:11;;;;;;;173.13;116.05;;;;;;;-0.59;100.00;100575.66;5093604;28;20012;-79
2022/12/02 10:49:36;;;;;;;53.20;38.05;;;;;;;-0.62;100.00;100574.75;5093286;28;20026;-79
2022/12/02 10:52:08;;;;;;;55.78;36.83;;;;;;;-0.61;100.00;100574.75;5093664;28;20382;-80
2022/12/02 10:54:37;;;;;;;53.13;37.28;;;;;;;-0.58;100.00;100571.38;5093114;28;20460;-80
2022/12/02 10:57:03;;;;;;;40.22;26.65;;;;;;;-0.58;100.00;100559.44;5093726;28;20028;-80
2022/12/02 10:59:30;;;;;;;54.08;33.90;;;;;;;-0.62;100.00;100567.91;5093152;28;20016;-80
2022/12/02 11:01:55;;;;;;;36.08;24.52;;;;;;;-0.68;100.00;100559.28;5093180;28;20097;-80
2022/12/02 11:04:21;;;;;;;47.20;31.60;;;;;;;-0.67;100.00;100558.47;5092991;28;20016;-79
2022/12/02 11:06:48;;;;;;;46.28;31.98;;;;;;;-0.64;100.00;100566.16;5092909;28;20058;-80
2022/12/02 11:09:19;;;;;;;53.80;31.70;;;;;;;-0.62;100.00;100557.69;5093253;28;20020;-80